createdAt,value
2022-12-18T00:01:15.115Z,-3.02
2022-12-18T00:03:42.036Z,-3.04
2022-12-18T00:06:09.731Z,-3.06
2022-12-18T00:08:36.264Z,-3.02
2022-12-18T00:11:07.391Z,-3.02
2022-12-18T00:13:34.551Z,-3.06
2022-12-18T00:16:06.383Z,-3.06
2022-12-18T00:18:33.744Z,-3.10
2022-12-18T00:21:02.065Z,-3.16
2022-12-18T00:23:29.523Z,-3.16
2022-12-18T00:25:56.053Z,-3.16
2022-12-18T00:28:22.552Z,-3.24
2022-12-18T00:30:52.294Z,-3.28
2022-12-18T00:33:19.171Z,-3.28
2022-12-18T00:35:45.628Z,-3.27
2022-12-18T00:38:12.076Z,-3.26
2022-12-18T00:40:38.524Z,-3.29
2022-12-18T00:43:04.967Z,-3.30
2022-12-18T00:45:32.766Z,-3.34
2022-12-18T00:47:59.326Z,-3.32
2022-12-18T00:50:26.570Z,-3.35
2022-12-18T00:52:53.059Z,-3.38
2022-12-18T00:55:19.967Z,-3.42
2022-12-18T00:57:46.475Z,-3.37
2022-12-18T01:00:14.815Z,-3.44
2022-12-18T01:02:42.092Z,-3.52
2022-12-18T01:05:13.884Z,-3.53
2022-12-18T01:07:40.718Z,-3.48
2022-12-18T01:10:08.525Z,-3.51
2022-12-18T01:12:35.187Z,-3.50
2022-12-18T01:15:01.864Z,-3.50
2022-12-18T01:17:28.454Z,-3.51
2022-12-18T01:19:55.040Z,-3.46
2022-12-18T01:22:21.667Z,-3.49
2022-12-18T01:24:48.079Z,-3.45
2022-12-18T01:27:14.804Z,-3.50
2022-12-18T01:29:41.306Z,-3.53
2022-12-18T01:32:07.815Z,-3.52
2022-12-18T01:34:35.332Z,-3.47
2022-12-18T01:37:04.335Z,-3.50
2022-12-18T01:39:30.980Z,-3.56
2022-12-18T01:42:03.537Z,-3.68
2022-12-18T01:44:59.375Z,-3.71
2022-12-18T01:47:44.746Z,-3.74
2022-12-18T01:50:15.056Z,-3.74
2022-12-18T01:52:44.726Z,-3.80
2022-12-18T01:55:13.326Z,-3.83
2022-12-18T01:57:41.322Z,-3.88
2022-12-18T02:00:17.236Z,-3.91
2022-12-18T02:02:45.957Z,-3.91
2022-12-18T02:05:16.419Z,-3.95
2022-12-18T02:08:16.174Z,-3.97
2022-12-18T02:10:57.994Z,-4.05
2022-12-18T02:13:44.832Z,-4.08
2022-12-18T02:16:16.299Z,-4.15
2022-12-18T02:18:48.969Z,-4.22
2022-12-18T02:21:18.218Z,-4.26
2022-12-18T02:24:01.335Z,-4.30
2022-12-18T02:26:45.882Z,-4.33
2022-12-18T02:29:36.258Z,-4.38
2022-12-18T02:32:07.036Z,-4.42
2022-12-18T02:34:39.288Z,-4.44
2022-12-18T02:37:08.973Z,-4.44
2022-12-18T02:39:39.179Z,-4.52
2022-12-18T02:42:08.953Z,-4.57
2022-12-18T02:44:43.604Z,-4.60
2022-12-18T02:47:13.504Z,-4.62
2022-12-18T02:50:08.922Z,-4.65
2022-12-18T02:52:38.213Z,-4.65
2022-12-18T02:55:25.896Z,-4.69
2022-12-18T02:58:15.414Z,-4.69
2022-12-18T03:01:10.823Z,-4.74
2022-12-18T03:03:45.996Z,-4.79
2022-12-18T03:06:26.336Z,-4.80
2022-12-18T03:08:59.129Z,-4.83
2022-12-18T03:11:47.954Z,-4.85
2022-12-18T03:14:18.400Z,-4.89
2022-12-18T03:16:47.048Z,-4.92
2022-12-18T03:19:17.928Z,-4.96
2022-12-18T03:21:50.513Z,-5.01
2022-12-18T03:24:20.021Z,-5.02
2022-12-18T03:26:50.223Z,-5.12
2022-12-18T03:29:23.807Z,-5.14
2022-12-18T03:31:57.961Z,-5.19
2022-12-18T03:34:31.067Z,-5.19
2022-12-18T03:36:59.014Z,-5.29
2022-12-18T03:39:26.367Z,-5.29
2022-12-18T03:41:56.384Z,-5.32
2022-12-18T03:44:50.327Z,-5.30
2022-12-18T03:47:25.874Z,-5.30
2022-12-18T03:50:09.621Z,-5.36
2022-12-18T03:52:54.998Z,-5.38
2022-12-18T03:55:22.879Z,-5.43
2022-12-18T03:57:56.954Z,-5.38
2022-12-18T04:00:23.485Z,-5.45
2022-12-18T04:02:56.247Z,-5.47
2022-12-18T04:05:25.307Z,-5.49
2022-12-18T04:07:53.499Z,-5.46
2022-12-18T04:10:20.000Z,-5.46
2022-12-18T04:12:46.553Z,-5.49
2022-12-18T04:15:14.466Z,-5.50
2022-12-18T04:17:48.609Z,-5.53
2022-12-18T04:20:15.377Z,-5.53
2022-12-18T04:22:42.627Z,-5.54
2022-12-18T04:25:09.319Z,-5.53
2022-12-18T04:27:35.829Z,-5.56
2022-12-18T04:30:02.700Z,-5.58
2022-12-18T04:32:29.152Z,-5.54
2022-12-18T04:34:55.852Z,-5.58
2022-12-18T04:37:22.288Z,-5.57
2022-12-18T04:39:48.737Z,-5.55
2022-12-18T04:42:15.212Z,-5.57
2022-12-18T04:44:41.670Z,-5.56
2022-12-18T04:47:08.636Z,-5.53
2022-12-18T04:49:35.064Z,-5.48
2022-12-18T04:52:01.515Z,-5.49
2022-12-18T04:54:27.990Z,-5.45
2022-12-18T04:56:54.445Z,-5.44
2022-12-18T04:59:21.706Z,-5.45
2022-12-18T05:01:48.351Z,-5.46
2022-12-18T05:04:14.958Z,-5.39
2022-12-18T05:06:41.381Z,-5.43
2022-12-18T05:09:07.831Z,-5.39
2022-12-18T05:11:34.289Z,-5.41
2022-12-18T05:14:00.741Z,-5.41
2022-12-18T05:16:27.223Z,-5.43
2022-12-18T05:18:53.695Z,-5.40
2022-12-18T05:21:20.177Z,-5.46
2022-12-18T05:23:46.635Z,-5.45
2022-12-18T05:26:17.409Z,-5.46
2022-12-18T05:28:44.802Z,-5.47
2022-12-18T05:31:11.561Z,-5.52
2022-12-18T05:33:38.537Z,-5.52
2022-12-18T05:36:07.740Z,-5.56
2022-12-18T05:38:36.212Z,-5.58
2022-12-18T05:41:04.577Z,-5.61
2022-12-18T05:43:31.356Z,-5.62
2022-12-18T05:45:58.483Z,-5.59
2022-12-18T05:48:24.983Z,-5.61
2022-12-18T05:50:52.061Z,-5.62
2022-12-18T05:53:20.601Z,-5.66
2022-12-18T05:55:47.949Z,-5.62
2022-12-18T05:58:15.406Z,-5.63
2022-12-18T06:00:44.437Z,-5.67
2022-12-18T06:03:12.757Z,-5.70
2022-12-18T06:05:41.848Z,-5.68
2022-12-18T06:08:08.785Z,-5.68
2022-12-18T06:10:35.402Z,-5.68
2022-12-18T06:13:02.212Z,-5.71
2022-12-18T06:15:28.689Z,-5.73
2022-12-18T06:17:55.221Z,-5.73
2022-12-18T06:20:21.720Z,-5.73
2022-12-18T06:22:48.173Z,-5.77
2022-12-18T06:25:14.670Z,-5.75
2022-12-18T06:27:41.301Z,-5.79
2022-12-18T06:30:09.537Z,-5.79
2022-12-18T06:32:35.993Z,-5.84
2022-12-18T06:35:02.437Z,-5.84
2022-12-18T06:37:29.264Z,-5.84
2022-12-18T06:39:57.468Z,-5.84
2022-12-18T06:42:25.089Z,-5.86
2022-12-18T06:44:51.616Z,-5.91
2022-12-18T06:47:18.096Z,-5.95
2022-12-18T06:49:44.565Z,-5.97
2022-12-18T06:52:11.011Z,-6.00
2022-12-18T06:54:37.602Z,-6.00
2022-12-18T06:57:04.131Z,-6.01
2022-12-18T06:59:30.657Z,-6.01
2022-12-18T07:01:57.228Z,-6.07
2022-12-18T07:04:28.916Z,-6.07
2022-12-18T07:06:55.358Z,-6.11
2022-12-18T07:09:22.048Z,-6.12
2022-12-18T07:11:48.508Z,-6.12
2022-12-18T07:14:14.980Z,-6.12
2022-12-18T07:16:41.874Z,-6.17
2022-12-18T07:19:08.379Z,-6.19
2022-12-18T07:21:34.872Z,-6.20
2022-12-18T07:24:01.358Z,-6.20
2022-12-18T07:26:27.927Z,-6.15
2022-12-18T07:28:58.612Z,-6.17
2022-12-18T07:31:26.148Z,-6.17
2022-12-18T07:33:53.083Z,-6.19
2022-12-18T07:36:20.372Z,-6.15
2022-12-18T07:38:50.827Z,-6.15
2022-12-18T07:41:17.439Z,-6.16
2022-12-18T07:43:44.423Z,-6.19
2022-12-18T07:46:13.583Z,-6.17
2022-12-18T07:48:41.307Z,-6.18
2022-12-18T07:51:08.337Z,-6.16
2022-12-18T07:53:37.216Z,-6.12
2022-12-18T07:58:53.477Z,-6.09
2022-12-18T08:01:20.073Z,-6.08
2022-12-18T08:03:47.838Z,-6.12
2022-12-18T08:06:14.961Z,-6.10
2022-12-18T08:08:43.099Z,-6.06
2022-12-18T08:11:09.600Z,-5.98
2022-12-18T08:13:36.328Z,-5.95
2022-12-18T08:16:06.338Z,-5.91
2022-12-18T08:18:37.745Z,-5.90
2022-12-18T08:21:11.383Z,-5.85
2022-12-18T08:23:42.580Z,-5.85
2022-12-18T08:26:10.111Z,-5.79
2022-12-18T08:28:36.779Z,-5.72
2022-12-18T08:31:03.322Z,-5.71
2022-12-18T08:33:29.812Z,-5.67
2022-12-18T08:35:56.256Z,-5.63
2022-12-18T08:38:23.811Z,-5.59
2022-12-18T08:40:50.261Z,-5.58
2022-12-18T08:43:51.826Z,-5.60
2022-12-18T08:46:19.640Z,-5.55
2022-12-18T08:48:46.526Z,-5.48
2022-12-18T08:51:13.537Z,-5.47
2022-12-18T08:53:40.362Z,-5.46
2022-12-18T08:56:07.644Z,-5.38
2022-12-18T08:58:34.193Z,-5.31
2022-12-18T09:01:05.803Z,-5.21
2022-12-18T09:03:32.349Z,-5.14
2022-12-18T09:05:59.019Z,-5.15
2022-12-18T09:08:25.520Z,-5.05
2022-12-18T09:10:52.644Z,-5.02
2022-12-18T09:13:19.847Z,-4.92
2022-12-18T09:15:48.918Z,-4.80
2022-12-18T09:18:17.145Z,-4.70
2022-12-18T09:20:44.416Z,-4.60
2022-12-18T09:23:11.325Z,-4.54
2022-12-18T09:25:38.847Z,-4.42
2022-12-18T09:28:12.063Z,-4.33
2022-12-18T09:30:40.173Z,-4.29
2022-12-18T09:33:06.679Z,-4.17
2022-12-18T09:35:36.796Z,-4.09
2022-12-18T09:38:03.328Z,-4.00
2022-12-18T09:40:35.927Z,-3.91
2022-12-18T09:43:05.718Z,-3.80
2022-12-18T09:45:43.703Z,-3.76
2022-12-18T09:48:31.832Z,-3.64
2022-12-18T09:51:05.125Z,-3.58
2022-12-18T09:53:36.445Z,-3.51
2022-12-18T09:56:05.249Z,-3.40
2022-12-18T09:58:39.763Z,-3.30
2022-12-18T10:01:19.413Z,-3.23
2022-12-18T10:03:46.002Z,-3.13
2022-12-18T10:06:24.976Z,-3.07
2022-12-18T10:09:11.372Z,-2.99
2022-12-18T10:11:48.220Z,-2.92
2022-12-18T10:14:40.990Z,-2.80
2022-12-18T10:17:27.849Z,-2.68
2022-12-18T10:19:59.672Z,-2.57
2022-12-18T10:22:38.199Z,-2.53
2022-12-18T10:25:28.404Z,-2.45
2022-12-18T10:28:01.250Z,-2.43
2022-12-18T10:30:27.993Z,-2.35
2022-12-18T10:32:57.060Z,-2.33
2022-12-18T10:35:26.753Z,-2.31
2022-12-18T10:38:14.954Z,-2.17
2022-12-18T10:41:03.401Z,-2.12
2022-12-18T10:43:31.291Z,-2.10
2022-12-18T10:46:10.092Z,-2.00
2022-12-18T10:48:48.658Z,-1.93
2022-12-18T10:51:31.625Z,-1.90
2022-12-18T10:54:18.587Z,-1.83
2022-12-18T10:56:45.861Z,-1.76
2022-12-18T10:59:17.864Z,-1.71
2022-12-18T11:01:53.464Z,-1.64
2022-12-18T11:04:32.597Z,-1.59
2022-12-18T11:07:00.255Z,-1.54
2022-12-18T11:09:29.746Z,-1.55
2022-12-18T11:12:07.054Z,-1.50
2022-12-18T11:14:46.868Z,-1.41
2022-12-18T11:17:26.687Z,-1.37
2022-12-18T11:20:27.636Z,-1.32
2022-12-18T11:23:03.739Z,-1.26
2022-12-18T11:25:32.480Z,-1.19
2022-12-18T11:28:03.659Z,-1.12
2022-12-18T11:30:35.214Z,-1.10
2022-12-18T11:33:06.632Z,-1.03
2022-12-18T11:35:43.101Z,-0.99
2022-12-18T11:38:35.543Z,-1.00
2022-12-18T11:41:07.348Z,-0.94
2022-12-18T11:43:53.214Z,-0.88
2022-12-18T11:46:48.158Z,-0.82
2022-12-18T11:49:14.616Z,-0.78
2022-12-18T11:51:50.235Z,-0.73
2022-12-18T11:54:17.344Z,-0.71
2022-12-18T11:56:59.550Z,-0.67
2022-12-18T11:59:37.837Z,-0.64
2022-12-18T12:02:13.171Z,-0.63
2022-12-18T12:04:42.529Z,-0.63
2022-12-18T12:07:41.148Z,-0.61
2022-12-18T12:10:25.888Z,-0.58
2022-12-18T12:13:10.146Z,-0.55
2022-12-18T12:15:57.135Z,-0.55
2022-12-18T12:18:55.710Z,-0.51
2022-12-18T12:21:29.114Z,-0.49
2022-12-18T12:24:25.652Z,-0.44
2022-12-18T12:27:21.587Z,-0.41
2022-12-18T12:30:17.534Z,-0.36
2022-12-18T12:33:03.632Z,-0.30
2022-12-18T12:36:15.623Z,-0.31
2022-12-18T12:38:51.879Z,-0.32
2022-12-18T12:41:41.709Z,-0.31
2022-12-18T12:44:14.186Z,-0.31
2022-12-18T12:46:42.783Z,-0.32
2022-12-18T12:49:40.413Z,-0.28
2022-12-18T12:52:13.487Z,-0.25
2022-12-18T12:54:40.814Z,-0.23
2022-12-18T12:57:16.614Z,-0.22
2022-12-18T13:00:22.989Z,-0.17
2022-12-18T13:02:55.329Z,-0.12
2022-12-18T13:05:39.551Z,-0.11
2022-12-18T13:08:09.972Z,-0.09
2022-12-18T13:10:40.009Z,-0.11
2022-12-18T13:13:10.454Z,-0.15
2022-12-18T13:15:47.699Z,-0.13
2022-12-18T13:18:19.361Z,-0.13
2022-12-18T13:20:59.756Z,-0.11
2022-12-18T13:23:34.627Z,-0.08
2022-12-18T13:26:27.956Z,-0.04
2022-12-18T13:28:55.991Z,-0.03
2022-12-18T13:31:40.714Z,-0.04
2022-12-18T13:34:26.126Z,-0.05
2022-12-18T13:36:55.454Z,-0.08
2022-12-18T13:39:34.753Z,-0.05
2022-12-18T13:42:08.565Z,-0.11
2022-12-18T13:44:40.945Z,-0.11
2022-12-18T13:47:34.413Z,-0.07
2022-12-18T13:50:03.156Z,-0.09
2022-12-18T13:52:37.521Z,-0.04
2022-12-18T13:55:16.025Z,-0.08
2022-12-18T13:57:42.545Z,-0.07
2022-12-18T14:00:20.894Z,-0.08
2022-12-18T14:02:47.677Z,-0.07
2022-12-18T14:05:26.783Z,-0.05
2022-12-18T14:07:55.562Z,-0.08
2022-12-18T14:10:48.627Z,-0.04
2022-12-18T14:13:15.055Z,-0.05
2022-12-18T14:15:45.303Z,-0.08
2022-12-18T14:18:17.905Z,-0.07
2022-12-18T14:20:49.216Z,-0.11
2022-12-18T14:23:37.637Z,-0.10
2022-12-18T14:26:23.299Z,-0.06
2022-12-18T14:28:50.184Z,-0.08
2022-12-18T14:31:25.849Z,-0.04
2022-12-18T14:33:53.604Z,-0.04
2022-12-18T14:36:24.163Z,-0.03
2022-12-18T14:38:56.540Z,-0.02
2022-12-18T14:41:24.539Z,-0.01
2022-12-18T14:43:52.852Z,0.01
2022-12-18T14:46:40.226Z,-0.01
2022-12-18T14:49:24.892Z,0.00
2022-12-18T14:51:59.962Z,0.00
2022-12-18T14:54:28.503Z,-0.02
2022-12-18T14:57:03.997Z,-0.02
2022-12-18T14:59:31.416Z,-0.05
2022-12-18T15:02:21.314Z,-0.03
2022-12-18T15:04:47.999Z,-0.06
2022-12-18T15:07:14.734Z,-0.05
2022-12-18T15:09:43.828Z,-0.06
2022-12-18T15:12:41.075Z,-0.05
2022-12-18T15:15:45.812Z,-0.05
2022-12-18T15:18:17.757Z,-0.10
2022-12-18T15:21:09.215Z,-0.10
2022-12-18T15:23:49.120Z,-0.10
2022-12-18T15:26:17.949Z,-0.05
2022-12-18T15:28:56.408Z,-0.06
2022-12-18T15:31:28.771Z,-0.08
2022-12-18T15:33:55.199Z,-0.06
2022-12-18T15:36:26.139Z,-0.10
2022-12-18T15:38:55.487Z,-0.11
2022-12-18T15:41:26.345Z,-0.08
2022-12-18T15:43:53.886Z,-0.06
2022-12-18T15:46:22.958Z,-0.11
2022-12-18T15:48:50.409Z,-0.10
2022-12-18T15:51:34.171Z,-0.10
2022-12-18T15:54:04.669Z,-0.12
2022-12-18T15:56:49.934Z,-0.12
2022-12-18T15:59:21.301Z,-0.14
2022-12-18T16:01:49.946Z,-0.12
2022-12-18T16:04:20.980Z,-0.11
2022-12-18T16:09:34.408Z,-0.11
2022-12-18T16:12:01.043Z,-0.13
2022-12-18T16:14:32.342Z,-0.14
2022-12-18T16:17:01.586Z,-0.14
2022-12-18T16:19:28.875Z,-0.10
2022-12-18T16:21:57.392Z,-0.08
2022-12-18T16:24:30.108Z,-0.07
2022-12-18T16:26:59.805Z,-0.08
2022-12-18T16:29:30.310Z,-0.07
2022-12-18T16:32:01.428Z,-0.07
2022-12-18T16:34:35.930Z,-0.07
2022-12-18T16:37:06.176Z,-0.09
2022-12-18T16:39:36.749Z,-0.09
2022-12-18T16:42:17.899Z,-0.06
2022-12-18T16:44:44.923Z,-0.06
2022-12-18T16:47:11.801Z,-0.07
2022-12-18T16:49:41.789Z,-0.04
2022-12-18T16:52:09.169Z,-0.06
2022-12-18T16:54:36.742Z,-0.03
2022-12-18T16:57:05.400Z,-0.06
2022-12-18T16:59:32.195Z,-0.03
2022-12-18T17:01:58.807Z,-0.04
2022-12-18T17:04:25.467Z,-0.05
2022-12-18T17:06:52.074Z,-0.03
2022-12-18T17:09:23.754Z,-0.04
2022-12-18T17:11:50.321Z,-0.02
2022-12-18T17:14:20.378Z,-0.04
2022-12-18T17:16:49.145Z,-0.03
2022-12-18T17:19:17.885Z,-0.03
2022-12-18T17:21:47.675Z,-0.02
2022-12-18T17:24:14.408Z,-0.04
2022-12-18T17:26:40.936Z,-0.03
2022-12-18T17:29:07.551Z,-0.01
2022-12-18T17:31:34.852Z,0.01
2022-12-18T17:34:03.083Z,0.00
2022-12-18T17:36:32.224Z,0.01
2022-12-18T17:39:01.473Z,0.01
2022-12-18T17:41:29.565Z,0.02
2022-12-18T17:44:00.637Z,0.01
2022-12-18T17:46:29.291Z,0.00
2022-12-18T17:48:57.265Z,0.03
2022-12-18T17:51:23.724Z,0.00
2022-12-18T17:53:50.300Z,0.00
2022-12-18T17:56:20.317Z,0.00
2022-12-18T17:58:48.017Z,0.05
2022-12-18T18:01:16.974Z,0.04
2022-12-18T18:03:44.820Z,0.04
2022-12-18T18:06:11.946Z,0.02
2022-12-18T18:08:38.463Z,0.05
2022-12-18T18:11:30.984Z,0.05
2022-12-18T18:14:00.691Z,0.05
2022-12-18T18:16:35.790Z,0.09
2022-12-18T18:19:07.331Z,0.08
2022-12-18T18:21:34.555Z,0.09
2022-12-18T18:24:03.253Z,0.12
2022-12-18T18:26:34.118Z,0.15
2022-12-18T18:29:03.003Z,0.15
2022-12-18T18:31:34.748Z,0.15
2022-12-18T18:34:08.664Z,0.15
2022-12-18T18:36:35.180Z,0.18
2022-12-18T18:39:02.211Z,0.20
2022-12-18T18:41:30.422Z,0.20
2022-12-18T18:43:58.319Z,0.19
2022-12-18T18:46:25.521Z,0.19
2022-12-18T18:48:52.106Z,0.21
2022-12-18T18:51:21.205Z,0.22
2022-12-18T18:53:49.768Z,0.27
2022-12-18T18:56:56.457Z,0.28
2022-12-18T18:59:04.682Z,0.32
2022-12-18T19:01:31.216Z,0.33
2022-12-18T19:03:57.816Z,0.35
2022-12-18T19:06:27.378Z,0.34
2022-12-18T19:08:55.986Z,0.34
2022-12-18T19:11:42.091Z,0.40
2022-12-18T19:14:10.377Z,0.42
2022-12-18T19:16:37.187Z,0.44
2022-12-18T19:19:04.437Z,0.45
2022-12-18T19:21:34.312Z,0.47
2022-12-18T19:24:02.787Z,0.47
2022-12-18T19:26:29.873Z,0.53
2022-12-18T19:29:07.766Z,0.48
2022-12-18T19:31:36.973Z,0.52
2022-12-18T19:34:07.957Z,0.51
2022-12-18T19:36:36.325Z,0.54
2022-12-18T19:39:12.478Z,0.53
2022-12-18T19:41:39.935Z,0.55
2022-12-18T19:44:08.172Z,0.55
2022-12-18T19:46:35.491Z,0.55
2022-12-18T19:49:02.036Z,0.55
2022-12-18T19:51:30.559Z,0.57
2022-12-18T19:54:00.534Z,0.57
2022-12-18T19:56:30.846Z,0.55
2022-12-18T19:58:57.741Z,0.54
2022-12-18T20:01:26.513Z,0.50
2022-12-18T20:03:53.715Z,0.49
2022-12-18T20:06:27.469Z,0.44
2022-12-18T20:08:57.992Z,0.42
2022-12-18T20:11:28.309Z,0.39
2022-12-18T20:13:54.873Z,0.41
2022-12-18T20:16:21.432Z,0.39
2022-12-18T20:18:49.205Z,0.37
2022-12-18T20:21:16.144Z,0.35
2022-12-18T20:23:43.170Z,0.33
2022-12-18T20:26:10.181Z,0.32
2022-12-18T20:28:36.762Z,0.32
2022-12-18T20:31:08.321Z,0.31
2022-12-18T20:33:37.150Z,0.32
2022-12-18T20:36:06.391Z,0.32
2022-12-18T20:38:35.608Z,0.32
2022-12-18T20:41:07.523Z,0.30
2022-12-18T20:43:34.196Z,0.30
2022-12-18T20:46:09.119Z,0.32
2022-12-18T20:48:36.045Z,0.32
2022-12-18T20:51:08.582Z,0.30
2022-12-18T20:53:35.989Z,0.27
2022-12-18T20:56:08.774Z,0.30
2022-12-18T20:58:36.102Z,0.31
2022-12-18T21:01:04.741Z,0.27
2022-12-18T21:03:31.314Z,0.25
2022-12-18T21:05:57.874Z,0.26
2022-12-18T21:08:24.328Z,0.27
2022-12-18T21:10:50.825Z,0.30
2022-12-18T21:13:17.315Z,0.27
2022-12-18T21:15:45.178Z,0.32
2022-12-18T21:18:11.741Z,0.31
2022-12-18T21:20:38.254Z,0.31
2022-12-18T21:23:16.349Z,0.30
2022-12-18T21:25:43.638Z,0.29
2022-12-18T21:28:10.079Z,0.32
2022-12-18T21:30:36.789Z,0.31
2022-12-18T21:33:03.500Z,0.33
2022-12-18T21:35:30.986Z,0.36
2022-12-18T21:37:58.633Z,0.38
2022-12-18T21:40:25.212Z,0.37
2022-12-18T21:43:10.491Z,0.40
2022-12-18T21:45:41.503Z,0.39
2022-12-18T21:48:08.060Z,0.40
2022-12-18T21:50:34.540Z,0.43
2022-12-18T21:53:00.966Z,0.41
2022-12-18T21:55:27.375Z,0.45
2022-12-18T21:57:54.194Z,0.44
2022-12-18T22:00:20.772Z,0.48
2022-12-18T22:02:59.934Z,0.48
2022-12-18T22:05:34.845Z,0.47
2022-12-18T22:08:01.722Z,0.47
2022-12-18T22:10:28.631Z,0.47
2022-12-18T22:12:55.203Z,0.47
2022-12-18T22:15:22.056Z,0.50
2022-12-18T22:17:50.381Z,0.49
2022-12-18T22:20:17.813Z,0.53
2022-12-18T22:22:46.909Z,0.52
2022-12-18T22:25:13.515Z,0.54
2022-12-18T22:27:39.968Z,0.55
2022-12-18T22:30:07.131Z,0.52
2022-12-18T22:32:35.555Z,0.56
2022-12-18T22:35:09.192Z,0.58
2022-12-18T22:37:37.214Z,0.57
2022-12-18T22:40:06.085Z,0.58
2022-12-18T22:42:34.306Z,0.62
2022-12-18T22:45:00.793Z,0.61
2022-12-18T22:47:30.016Z,0.64
2022-12-18T22:49:57.948Z,0.63
2022-12-18T22:52:25.052Z,0.64
2022-12-18T22:54:53.394Z,0.65
2022-12-18T22:57:20.793Z,0.65
2022-12-18T22:59:47.273Z,0.65
2022-12-18T23:02:13.831Z,0.63
2022-12-18T23:04:40.348Z,0.69
2022-12-18T23:07:06.954Z,0.69
2022-12-18T23:09:33.838Z,0.66
2022-12-18T23:12:00.708Z,0.71
2022-12-18T23:14:28.395Z,0.73
2022-12-18T23:16:55.053Z,0.75
2022-12-18T23:19:23.516Z,0.74
2022-12-18T23:21:50.849Z,0.78
2022-12-18T23:24:17.356Z,0.76
2022-12-18T23:26:43.779Z,0.78
2022-12-18T23:29:10.335Z,0.81
2022-12-18T23:31:38.896Z,0.79
2022-12-18T23:34:06.310Z,0.80
2022-12-18T23:36:43.523Z,0.82
2022-12-18T23:39:15.629Z,0.82
2022-12-18T23:41:55.963Z,0.79
2022-12-18T23:44:22.429Z,0.77
2022-12-18T23:46:48.915Z,0.77
2022-12-18T23:49:15.439Z,0.78
2022-12-18T23:51:41.884Z,0.78
2022-12-18T23:54:10.167Z,0.77
2022-12-18T23:56:36.604Z,0.83
2022-12-18T23:59:03.249Z,0.82
